Time;durP1;ratioP1;P1;durP2;ratioP2;P2;SDS_P1;SDS_P2;PMS_P1;PMS_P2;Temp;Humidity;BMP_temperature;BMP_pressure;BME280_temperature;BME280_humidity;BME280_pressure;Samples;Min_cycle;Max_cycle;Signal;HPM_P1;HPM_P2
2022/04/06 00:00:27;;;;;;;;;;;;;;;8.37;59.64;99158.97;4436209;32;19986;-87
2022/04/06 00:02:53;;;;;;;;;;;;;;;8.32;59.65;99159.09;4431891;32;19973;-90
2022/04/06 00:05:18;;;;;;;;;;;;;;;8.20;59.64;99162.91;4437102;32;20291;-91
2022/04/06 00:07:43;;;;;;;;;;;;;;;8.31;59.65;99166.03;4418347;32;19997;-91
2022/04/06 00:10:09;;;;;;;;;;;;;;;8.35;59.64;99164.22;4437280;32;20310;-92
2022/04/06 00:12:35;;;;;;;;;;;;;;;8.38;59.65;99165.88;4437225;32;20016;-89
2022/04/06 00:15:00;;;;;;;;;;;;;;;8.37;59.64;99166.75;4420030;32;19989;-90
2022/04/06 00:17:25;;;;;;;;;;;;;;;8.39;59.65;99172.75;4437210;32;20033;-90
2022/04/06 00:19:50;;;;;;;;;;;;;;;8.34;59.65;99172.91;4418845;32;19978;-91
2022/04/06 00:22:16;;;;;;;;;;;;;;;8.26;59.64;99174.84;4437305;32;19982;-90
2022/04/06 00:24:41;;;;;;;;;;;;;;;8.33;59.65;99178.94;4437087;32;20002;-90
2022/04/06 00:27:06;;;;;;;;;;;;;;;8.36;59.64;99175.44;4437200;32;20274;-91
2022/04/06 00:29:31;;;;;;;;;;;;;;;8.44;59.65;99176.03;4437150;32;20029;-90
2022/04/06 00:31:57;;;;;;;;;;;;;;;8.34;59.65;99179.81;4418595;32;27612;-90
2022/04/06 00:35:28;;;;;;;;;;;;;;;8.23;59.64;99183.56;4436622;32;19982;-89
2022/04/06 00:37:07;;;;;;;;;;;;;;;8.19;59.64;99178.53;4431074;32;19977;-90
2022/04/06 00:39:32;;;;;;;;;;;;;;;8.29;59.65;99175.63;4436621;32;20027;-89
2022/04/06 00:41:57;;;;;;;;;;;;;;;8.21;59.64;99181.91;4432002;32;20015;-89
2022/04/06 00:44:23;;;;;;;;;;;;;;;8.22;59.64;99184.47;4436105;32;25059;-90
2022/04/06 00:46:48;;;;;;;;;;;;;;;8.22;59.63;99186.19;4417324;32;34409;-90
2022/04/06 00:49:14;;;;;;;;;;;;;;;8.27;59.64;99184.31;4436639;32;20000;-90
2022/04/06 00:51:43;;;;;;;;;;;;;;;8.27;59.64;99179.97;4436622;32;20003;-90
2022/04/06 00:54:08;;;;;;;;;;;;;;;8.23;59.64;99185.31;4420234;32;19990;-90
2022/04/06 00:56:34;;;;;;;;;;;;;;;8.14;59.64;99181.28;4436572;32;19985;-89
2022/04/06 00:58:59;;;;;;;;;;;;;;;8.28;59.63;99181.69;4424989;32;19978;-89
2022/04/06 01:01:24;;;;;;;;;;;;;;;8.27;59.64;99182.56;4434753;32;19985;-89
2022/04/06 01:03:49;;;;;;;;;;;;;;;8.34;59.65;99187.59;4431142;32;20027;-90
2022/04/06 01:06:15;;;;;;;;;;;;;;;8.19;59.64;99184.56;4435791;32;29128;-90
2022/04/06 01:08:40;;;;;;;;;;;;;;;8.26;59.64;99186.06;4436337;32;19989;-91
2022/04/06 01:11:05;;;;;;;;;;;;;;;8.31;59.65;99181.59;4432272;32;19982;-91
2022/04/06 01:13:30;;;;;;;;;;;;;;;8.47;59.66;99175.94;4424720;32;19988;-91
2022/04/06 01:15:56;;;;;;;;;;;;;;;8.56;59.66;99183.44;4431187;32;24927;-90
2022/04/06 01:18:21;;;;;;;;;;;;;;;8.26;59.64;99180.88;4436328;32;19981;-91
2022/04/06 01:20:46;;;;;;;;;;;;;;;8.25;59.64;99192.13;4417756;32;19989;-91
2022/04/06 01:23:11;;;;;;;;;;;;;;;8.24;59.64;99193.03;4436673;32;20031;-91
2022/04/06 01:25:38;;;;;;;;;;;;;;;8.21;59.63;99193.13;4436416;32;20284;-91
2022/04/06 01:28:03;;;;;;;;;;;;;;;8.11;59.63;99193.47;4419588;32;19985;-91
2022/04/06 01:30:29;;;;;;;;;;;;;;;8.07;59.64;99195.31;4436437;32;20306;-91
2022/04/06 01:32:55;;;;;;;;;;;;;;;7.98;59.62;99191.25;4418466;32;19985;-91
2022/04/06 01:35:20;;;;;;;;;;;;;;;8.00;59.63;99198.97;4436662;32;20032;-91
2022/04/06 01:37:45;;;;;;;;;;;;;;;8.02;59.63;99195.44;4417241;32;32429;-92
2022/04/06 01:40:11;;;;;;;;;;;;;;;8.19;59.64;99192.34;4436092;32;20041;-92
2022/04/06 01:42:36;;;;;;;;;;;;;;;8.14;59.64;99189.03;4424922;32;20310;-91
2022/04/06 01:45:01;;;;;;;;;;;;;;;8.22;59.64;99189.66;4419429;32;20293;-92
2022/04/06 01:47:26;;;;;;;;;;;;;;;8.13;59.63;99186.50;4436622;32;20012;-90
2022/04/06 01:52:36;;;;;;;;;;;;;;;8.25;59.64;99175.72;4434521;32;20346;-89
2022/04/06 01:55:11;;;;;;;;;;;;;;;8.17;59.64;99186.34;4424701;32;20005;-89
2022/04/06 01:57:36;;;;;;;;;;;;;;;8.16;59.63;99186.41;4422769;32;19981;-90
2022/04/06 02:00:03;;;;;;;;;;;;;;;8.25;59.64;99186.94;4419085;32;19990;-90
2022/04/06 02:02:30;;;;;;;;;;;;;;;8.18;59.64;99190.63;4436028;32;20377;-90
2022/04/06 02:04:55;;;;;;;;;;;;;;;8.14;59.63;99188.19;4418279;32;20002;-90
2022/04/06 02:07:21;;;;;;;;;;;;;;;8.25;59.64;99174.00;4435428;32;27669;-89
2022/04/06 02:09:46;;;;;;;;;;;;;;;8.30;59.65;99177.31;4430155;32;20015;-89
2022/04/06 02:12:11;;;;;;;;;;;;;;;8.29;59.65;99182.53;4436140;32;20010;-89
2022/04/06 02:14:40;;;;;;;;;;;;;;;8.20;59.64;99173.28;4435931;32;19993;-89
2022/04/06 02:17:07;;;;;;;;;;;;;;;8.28;59.64;99173.03;4432301;32;20000;-89
2022/04/06 02:19:32;;;;;;;;;;;;;;;8.16;59.64;99168.25;4435894;32;19984;-89
2022/04/06 02:21:58;;;;;;;;;;;;;;;8.06;59.63;99164.28;4417130;32;26839;-89
2022/04/06 02:24:23;;;;;;;;;;;;;;;8.18;59.64;99164.72;4434667;32;27196;-89
2022/04/06 02:26:48;;;;;;;;;;;;;;;8.24;59.64;99177.47;4417417;32;19984;-89
2022/04/06 02:29:15;;;;;;;;;;;;;;;8.15;59.64;99175.19;4435755;32;20235;-89
2022/04/06 02:31:40;;;;;;;;;;;;;;;7.98;59.62;99172.25;4435645;32;20012;-89
2022/04/06 02:34:06;;;;;;;;;;;;;;;7.91;59.62;99173.34;4429405;32;19999;-89
2022/04/06 02:36:31;;;;;;;;;;;;;;;7.90;59.62;99180.28;4422957;32;20275;-89
2022/04/06 02:38:56;;;;;;;;;;;;;;;7.87;59.62;99176.94;4418031;32;19974;-89
2022/04/06 02:41:21;;;;;;;;;;;;;;;7.86;59.62;99181.28;4435535;32;19994;-90
2022/04/06 02:43:47;;;;;;;;;;;;;;;8.00;59.63;99181.69;4430008;32;19998;-91
2022/04/06 02:46:13;;;;;;;;;;;;;;;7.75;59.61;99179.88;4435313;32;19993;-90
2022/04/06 02:48:38;;;;;;;;;;;;;;;7.69;59.62;99176.59;4435480;32;19992;-90
2022/04/06 02:51:03;;;;;;;;;;;;;;;7.61;59.61;99175.97;4418964;32;20033;-91
2022/04/06 02:53:29;;;;;;;;;;;;;;;7.61;59.60;99175.12;4435333;32;28158;-91
2022/04/06 02:55:54;;;;;;;;;;;;;;;7.71;59.61;99176.53;4417934;32;19981;-91
2022/04/06 02:58:19;;;;;;;;;;;;;;;7.75;59.61;99169.50;4435665;32;19997;-92
2022/04/06 03:00:45;;;;;;;;;;;;;;;7.69;59.61;99181.75;4417208;32;20347;-92
2022/04/06 03:03:10;;;;;;;;;;;;;;;7.66;59.61;99187.03;4435964;32;20017;-92
2022/04/06 03:05:35;;;;;;;;;;;;;;;7.59;59.60;99184.69;4435718;32;20008;-91
2022/04/06 03:08:00;;;;;;;;;;;;;;;7.56;59.61;99189.91;4418737;32;19985;-90
2022/04/06 03:10:26;;;;;;;;;;;;;;;7.68;59.61;99193.00;4435832;32;20324;-91
2022/04/06 03:12:51;;;;;;;;;;;;;;;7.64;59.60;99194.00;4430432;32;19999;-92
2022/04/06 03:15:16;;;;;;;;;;;;;;;7.65;59.60;99194.84;4435778;32;19978;-92
2022/04/06 03:17:42;;;;;;;;;;;;;;;7.86;59.62;99190.78;4435519;32;19996;-91
2022/04/06 03:20:07;;;;;;;;;;;;;;;7.89;59.62;99193.28;4435459;32;20032;-91
2022/04/06 03:22:32;;;;;;;;;;;;;;;7.92;59.63;99198.38;4435935;32;20345;-92
2022/04/06 03:24:58;;;;;;;;;;;;;;;7.64;59.61;99196.59;4418541;32;19977;-92
2022/04/06 03:27:23;;;;;;;;;;;;;;;7.62;59.61;99190.63;4435792;32;19990;-92
2022/04/06 03:29:48;;;;;;;;;;;;;;;7.65;59.61;99185.34;4416961;32;19993;-92
2022/04/06 03:32:13;;;;;;;;;;;;;;;7.62;59.61;99190.63;4435818;32;20001;-93
2022/04/06 03:34:39;;;;;;;;;;;;;;;7.55;59.61;99189.06;4437989;32;20587;-92
2022/04/06 03:37:04;;;;;;;;;;;;;;;7.64;59.61;99183.66;4421364;32;20023;-93
2022/04/06 03:39:29;;;;;;;;;;;;;;;7.52;59.59;99181.41;4438046;32;19986;-93
2022/04/06 03:41:54;;;;;;;;;;;;;;;7.36;59.59;99188.78;4419718;32;24422;-94
2022/04/06 03:44:20;;;;;;;;;;;;;;;7.50;59.60;99184.91;4437939;32;20071;-91
2022/04/06 03:46:45;;;;;;;;;;;;;;;7.44;59.60;99177.34;4418829;32;20298;-93
2022/04/06 03:49:10;;;;;;;;;;;;;;;7.41;59.60;99177.44;4437567;32;20275;-92
2022/04/06 03:51:35;;;;;;;;;;;;;;;7.24;59.58;99193.41;4437170;32;30240;-91
2022/04/06 03:54:01;;;;;;;;;;;;;;;7.21;59.58;99194.34;4433031;32;19978;-91
2022/04/06 03:56:26;;;;;;;;;;;;;;;7.24;59.58;99196.84;4437186;32;19974;-89
2022/04/06 03:58:51;;;;;;;;;;;;;;;7.33;59.59;99201.81;4425306;32;19985;-89
2022/04/06 04:01:17;;;;;;;;;;;;;;;7.28;59.58;99203.63;4425292;32;19974;-88
2022/04/06 04:03:42;;;;;;;;;;;;;;;7.42;59.59;99198.09;4425406;32;19974;-88
2022/04/06 04:06:07;;;;;;;;;;;;;;;7.49;59.60;99198.75;4432860;32;19982;-90
2022/04/06 04:08:33;;;;;;;;;;;;;;;7.63;59.61;99192.31;4436943;32;19993;-89
2022/04/06 04:10:58;;;;;;;;;;;;;;;7.53;59.59;99188.28;4424624;32;20000;-91
2022/04/06 04:13:23;;;;;;;;;;;;;;;7.63;59.61;99200.09;4435128;32;20263;-93
2022/04/06 04:15:49;;;;;;;;;;;;;;;7.61;59.61;99194.09;4418692;32;20005;-92
2022/04/06 04:18:14;;;;;;;;;;;;;;;7.68;59.61;99194.75;4437475;32;20289;-92
2022/04/06 04:20:41;;;;;;;;;;;;;;;7.74;59.61;99199.75;4436626;32;25398;-91
2022/04/06 04:23:07;;;;;;;;;;;;;;;7.77;59.62;99196.22;4420394;32;19989;-90
2022/04/06 04:25:32;;;;;;;;;;;;;;;7.96;59.62;99193.03;4436611;32;19982;-92
2022/04/06 04:27:57;;;;;;;;;;;;;;;8.09;59.63;99196.13;4419277;32;28932;-92
2022/04/06 04:30:22;;;;;;;;;;;;;;;8.06;59.63;99197.97;4437340;32;19990;-92
2022/04/06 04:32:48;;;;;;;;;;;;;;;8.20;59.63;99194.03;4419072;32;20020;-92
2022/04/06 04:35:13;;;;;;;;;;;;;;;8.17;59.64;99196.72;4437262;32;20001;-92
2022/04/06 04:37:38;;;;;;;;;;;;;;;8.31;59.64;99198.91;4437216;32;20331;-92
2022/04/06 04:40:04;;;;;;;;;;;;;;;8.34;59.65;99204.00;4420613;32;20008;-92
2022/04/06 04:42:29;;;;;;;;;;;;;;;8.22;59.64;99205.19;4437285;32;20326;-92
2022/04/06 04:44:54;;;;;;;;;;;;;;;8.28;59.64;99217.13;4418643;32;25732;-93
2022/04/06 04:47:19;;;;;;;;;;;;;;;8.29;59.63;99213.66;4436966;32;26078;-94
2022/04/06 04:49:45;;;;;;;;;;;;;;;8.43;59.64;99208.06;4418678;32;29182;-93
2022/04/06 04:52:10;;;;;;;;;;;;;;;8.47;59.65;99209.66;4436834;32;30192;-92
2022/04/06 04:54:36;;;;;;;;;;;;;;;8.51;59.66;99209.50;4437677;32;20274;-92
2022/04/06 04:57:01;;;;;;;;;;;;;;;8.53;59.66;99212.06;4432854;32;20006;-91
2022/04/06 04:59:26;;;;;;;;;;;;;;;8.63;59.66;99208.25;4437038;32;20366;-93
2022/04/06 05:01:52;;;;;;;;;;;;;;;8.67;59.67;99211.59;4418986;32;19986;-92
2022/04/06 05:04:17;;;;;;;;;;;;;;;8.69;59.66;99210.66;4437033;32;20025;-92
2022/04/06 05:06:43;;;;;;;;;;;;;;;8.92;59.68;99217.66;4418114;32;19974;-93
2022/04/06 05:09:08;;;;;;;;;;;;;;;9.15;59.69;99216.87;4437597;32;20002;-93
2022/04/06 05:11:33;;;;;;;;;;;;;;;9.16;59.69;99218.56;4436728;32;27524;-94
2022/04/06 05:13:58;;;;;;;;;;;;;;;9.29;59.70;99216.41;4420336;32;19989;-93
2022/04/06 05:16:24;;;;;;;;;;;;;;;9.31;59.70;99225.84;4436609;32;31646;-92
2022/04/06 05:18:49;;;;;;;;;;;;;;;9.44;59.70;99218.44;4418937;32;19993;-93
2022/04/06 05:21:14;;;;;;;;;;;;;;;9.58;59.71;99216.22;4436843;32;20001;-92
2022/04/06 05:23:39;;;;;;;;;;;;;;;9.70;59.71;99212.31;4436976;32;19985;-93
2022/04/06 05:26:05;;;;;;;;;;;;;;;9.83;59.72;99216.16;4419412;32;20021;-93
2022/04/06 05:28:30;;;;;;;;;;;;;;;9.83;59.73;99222.19;4436832;32;20021;-93
2022/04/06 05:30:55;;;;;;;;;;;;;;;9.97;59.73;99213.03;4419504;32;20000;-92
2022/04/06 05:33:20;;;;;;;;;;;;;;;10.22;59.74;99219.03;4437093;32;20040;-92
2022/04/06 05:35:46;;;;;;;;;;;;;;;10.34;59.75;99218.53;4430576;32;22902;-93
2022/04/06 05:38:11;;;;;;;;;;;;;;;10.43;59.76;99219.94;4436971;32;20004;-93
2022/04/06 05:40:36;;;;;;;;;;;;;;;10.58;59.77;99232.31;4436923;32;20307;-93
2022/04/06 05:43:02;;;;;;;;;;;;;;;10.86;59.79;99236.41;4420944;32;19990;-93
2022/04/06 05:45:27;;;;;;;;;;;;;;;11.02;59.80;99230.50;4411040;32;19989;-93
2022/04/06 05:47:52;;;;;;;;;;;;;;;11.20;59.80;99228.03;4433486;32;20318;-93
2022/04/06 05:50:17;;;;;;;;;;;;;;;11.23;59.80;99231.34;4439054;32;19993;-92
2022/04/06 05:52:43;;;;;;;;;;;;;;;11.39;59.82;99236.75;4454335;32;19999;-93
2022/04/06 05:55:08;;;;;;;;;;;;;;;11.54;59.83;99240.44;4441494;32;19988;-92
2022/04/06 05:57:33;;;;;;;;;;;;;;;11.76;59.84;99245.53;4455639;32;20014;-92
2022/04/06 05:59:59;;;;;;;;;;;;;;;11.70;59.83;99244.06;4441228;32;20033;-92
2022/04/06 06:02:24;;;;;;;;;;;;;;;11.83;59.84;99232.22;4454011;32;20303;-93
2022/04/06 06:04:50;;;;;;;;;;;;;;;11.87;59.83;99240.72;4441243;32;20017;-92
2022/04/06 06:07:16;;;;;;;;;;;;;;;12.07;59.85;99239.84;4441278;32;20004;-92
2022/04/06 06:09:41;;;;;;;;;;;;;;;12.27;59.86;99237.09;4441350;32;19977;-93
2022/04/06 06:12:06;;;;;;;;;;;;;;;12.35;59.86;99239.37;4429658;32;20256;-92
2022/04/06 06:14:32;;;;;;;;;;;;;;;12.43;59.88;99235.47;4450652;32;19994;-93
2022/04/06 06:16:58;;;;;;;;;;;;;;;12.70;59.88;99235.06;4434026;32;19986;-93
2022/04/06 06:19:23;;;;;;;;;;;;;;;12.84;59.89;99230.87;4451692;32;19973;-92
2022/04/06 06:21:49;;;;;;;;;;;;;;;13.00;59.90;99238.75;4433024;32;20019;-92
2022/04/06 06:24:14;;;;;;;;;;;;;;;12.98;59.90;99238.00;4438380;32;20024;-92
2022/04/06 06:26:40;;;;;;;;;;;;;;;12.92;59.90;99233.09;4438257;32;20033;-92
2022/04/06 06:29:05;;;;;;;;;;;;;;;12.81;59.90;99230.19;4438683;32;20015;-92
2022/04/06 06:31:31;;;;;;;;;;;;;;;13.02;59.89;99236.09;4426024;32;20047;-93
2022/04/06 06:33:57;;;;;;;;;;;;;;;13.04;59.90;99235.09;4438411;32;19998;-91
2022/04/06 06:36:23;;;;;;;;;;;;;;;13.08;59.90;99239.25;4436414;32;20030;-92
2022/04/06 06:38:48;;;;;;;;;;;;;;;13.08;59.90;99236.63;4425661;32;19986;-92
2022/04/06 06:41:14;;;;;;;;;;;;;;;13.14;59.91;99241.53;4425754;32;20254;-92
2022/04/06 06:43:39;;;;;;;;;;;;;;;13.42;59.93;99233.16;4425685;32;19997;-92
2022/04/06 06:46:04;;;;;;;;;;;;;;;13.56;59.93;99229.00;4425516;32;20001;-92
2022/04/06 06:48:30;;;;;;;;;;;;;;;13.71;59.94;99221.16;4438335;32;19977;-92
2022/04/06 06:50:55;;;;;;;;;;;;;;;13.74;59.94;99226.25;4438374;32;20021;-91
2022/04/06 06:53:20;;;;;;;;;;;;;;;13.94;59.95;99226.94;4438352;32;20021;-92
2022/04/06 06:55:45;;;;;;;;;;;;;;;14.21;59.96;99225.47;4438452;32;19994;-92
2022/04/06 06:58:11;;;;;;;;;;;;;;;14.25;59.98;99220.91;4438507;32;20301;-92
2022/04/06 07:00:36;;;;;;;;;;;;;;;14.21;59.97;99215.00;4438286;32;19966;-92
2022/04/06 07:03:01;;;;;;;;;;;;;;;14.43;59.98;99215.53;4438342;32;20350;-89
2022/04/06 07:05:28;;;;;;;;;;;;;;;14.59;59.99;99209.41;4425335;32;19973;-89
2022/04/06 07:08:01;;;;;;;;;;;;;;;14.69;59.99;99211.41;4438131;32;19978;-89
2022/04/06 07:10:26;;;;;;;;;;;;;;;15.05;60.01;99208.41;4426939;32;20352;-90
2022/04/06 07:12:52;;;;;;;;;;;;;;;15.17;60.03;99211.28;4439809;32;19993;-90
2022/04/06 07:15:17;;;;;;;;;;;;;;;15.35;60.03;99202.28;4427215;32;20003;-90
2022/04/06 07:17:42;;;;;;;;;;;;;;;15.55;60.05;99207.16;4427183;32;20004;-89
2022/04/06 07:20:09;;;;;;;;;;;;;;;15.64;60.04;99206.66;4427086;32;20091;-92
2022/04/06 07:22:34;;;;;;;;;;;;;;;15.68;60.04;99216.97;4427103;32;20431;-92
2022/04/06 07:24:59;;;;;;;;;;;;;;;15.82;60.05;99204.66;4439871;32;20017;-92
2022/04/06 07:27:24;;;;;;;;;;;;;;;15.93;60.06;99202.22;4426710;32;20022;-90
2022/04/06 07:29:51;;;;;;;;;;;;;;;16.14;60.07;99209.69;4439889;32;20311;-89
2022/04/06 07:32:16;;;;;;;;;;;;;;;16.20;60.08;99207.50;4440003;32;20363;-90
2022/04/06 07:34:43;;;;;;;;;;;;;;;16.17;60.07;99205.06;4426728;32;19985;-88
2022/04/06 07:37:08;;;;;;;;;;;;;;;16.47;60.10;99209.31;4439484;32;19995;-89
2022/04/06 07:39:34;;;;;;;;;;;;;;;16.59;60.10;99216.41;4439967;32;19966;-89
2022/04/06 07:41:59;;;;;;;;;;;;;;;16.76;60.10;99218.78;4441010;32;19996;-90
2022/04/06 07:44:24;;;;;;;;;;;;;;;16.78;60.11;99218.69;4439953;32;19993;-89
2022/04/06 07:46:50;;;;;;;;;;;;;;;16.93;60.11;99219.47;4426657;32;20023;-89
2022/04/06 07:49:16;;;;;;;;;;;;;;;16.76;60.10;99213.53;4439695;32;20022;-89
2022/04/06 07:51:41;;;;;;;;;;;;;;;16.93;60.11;99217.69;4439807;32;19993;-89
2022/04/06 07:54:06;;;;;;;;;;;;;;;17.03;60.12;99210.00;4426739;32;20318;-90
2022/04/06 07:56:39;;;;;;;;;;;;;;;16.95;60.12;99217.56;4426967;32;20031;-90
2022/04/06 07:59:04;;;;;;;;;;;;;;;17.11;60.12;99224.34;4439968;32;19992;-90
2022/04/06 08:01:30;;;;;;;;;;;;;;;17.07;60.12;99224.66;4439639;32;20013;-89
2022/04/06 08:03:55;;;;;;;;;;;;;;;16.92;60.11;99226.50;4426831;32;20276;-90
2022/04/06 08:06:22;;;;;;;;;;;;;;;16.79;60.10;99223.84;4439668;32;20068;-90
2022/04/06 08:08:51;;;;;;;;;;;;;;;16.77;60.11;99223.09;4440002;32;20021;-89
2022/04/06 08:11:16;;;;;;;;;;;;;;;16.82;60.11;99214.94;4426860;32;20152;-89
2022/04/06 08:13:42;;;;;;;;;;;;;;;16.88;60.11;99223.25;4439646;32;20335;-89
2022/04/06 08:16:07;;;;;;;;;;;;;;;17.03;60.12;99215.25;4439360;32;20022;-90
2022/04/06 08:18:32;;;;;;;;;;;;;;;17.10;60.13;99219.19;4426538;32;19969;-89
2022/04/06 08:20:59;;;;;;;;;;;;;;;17.28;60.13;99217.94;4438604;32;19997;-90
2022/04/06 08:23:24;;;;;;;;;;;;;;;17.41;60.14;99216.16;4426725;32;20350;-90
2022/04/06 08:25:49;;;;;;;;;;;;;;;17.34;60.14;99216.69;4439284;32;19970;-89
2022/04/06 08:28:15;;;;;;;;;;;;;;;17.57;60.15;99212.47;4439425;32;20270;-89
2022/04/06 08:30:40;;;;;;;;;;;;;;;17.73;60.16;99202.56;4426583;32;19989;-89
2022/04/06 08:33:06;;;;;;;;;;;;;;;17.93;60.17;99214.34;4439479;32;20282;-89
2022/04/06 08:35:31;;;;;;;;;;;;;;;18.14;60.18;99210.19;4426414;32;19989;-89
2022/04/06 08:37:56;;;;;;;;;;;;;;;18.25;60.19;99212.06;4439618;32;19970;-89
2022/04/06 08:43:24;;;;;;;;;;;;;;;18.45;60.19;99202.69;4440739;32;20004;-89
2022/04/06 08:45:50;;;;;;;;;;;;;;;18.54;60.20;99213.41;4426324;32;19989;-89
2022/04/06 08:48:15;;;;;;;;;;;;;;;18.69;60.21;99214.97;4439444;32;19988;-89
2022/04/06 08:50:41;;;;;;;;;;;;;;;18.84;60.23;99209.50;4439497;32;20024;-90
2022/04/06 08:53:07;;;;;;;;;;;;;;;19.05;60.22;99207.91;4439474;32;19998;-90
2022/04/06 08:55:33;;;;;;;;;;;;;;;19.19;60.24;99202.44;4439389;32;19978;-90
2022/04/06 08:57:58;;;;;;;;;;;;;;;19.27;60.24;99200.03;4426326;32;20016;-89
2022/04/06 09:00:23;;;;;;;;;;;;;;;19.42;60.25;99202.47;4426494;32;20291;-90
2022/04/06 09:02:48;;;;;;;;;;;;;;;19.47;60.26;99198.50;4439514;32;19982;-90
2022/04/06 09:05:14;;;;;;;;;;;;;;;19.43;60.25;99190.94;4439274;32;19981;-89
2022/04/06 09:07:39;;;;;;;;;;;;;;;19.51;60.25;99189.38;4439304;32;19989;-90
2022/04/06 09:10:05;;;;;;;;;;;;;;;19.64;60.26;99186.69;4426353;32;20333;-89
2022/04/06 09:12:30;;;;;;;;;;;;;;;19.78;60.27;99186.41;4426493;32;20017;-90
2022/04/06 09:15:09;;;;;;;;;;;;;;;19.98;60.28;99186.66;4426438;32;19990;-90
2022/04/06 09:17:44;;;;;;;;;;;;;;;20.21;60.29;99188.28;4439311;32;19977;-90
2022/04/06 09:20:10;;;;;;;;;;;;;;;20.18;60.30;99189.38;4439508;32;20021;-90
2022/04/06 09:22:36;;;;;;;;;;;;;;;20.26;60.30;99177.34;4426201;32;20007;-89
2022/04/06 09:25:02;;;;;;;;;;;;;;;20.30;60.29;99181.41;4439311;32;20322;-90
2022/04/06 09:27:33;;;;;;;;;;;;;;;20.30;60.29;99182.25;4426402;32;20299;-90
2022/04/06 09:29:58;;;;;;;;;;;;;;;20.43;60.31;99184.78;4439263;32;20011;-90
2022/04/06 09:32:24;;;;;;;;;;;;;;;20.39;60.29;99176.22;4426099;32;20263;-90
2022/04/06 09:34:49;;;;;;;;;;;;;;;20.51;60.30;99175.25;4439125;32;20251;-90
2022/04/06 09:37:28;;;;;;;;;;;;;;;20.63;60.32;99175.22;4439189;32;19974;-90
2022/04/06 09:39:54;;;;;;;;;;;;;;;20.87;60.33;99175.81;4426208;32;20278;-90
2022/04/06 09:42:26;;;;;;;;;;;;;;;20.94;60.34;99169.03;4439328;32;19998;-90
2022/04/06 09:47:42;;;;;;;;;;;;;;;21.00;60.33;99157.09;4440360;32;20397;-91
2022/04/06 09:50:11;;;;;;;;;;;;;;;21.17;60.35;99155.69;4426526;32;20004;-90
2022/04/06 09:52:36;;;;;;;;;;;;;;;21.25;60.35;99147.94;4439213;32;19997;-91
2022/04/06 09:55:01;;;;;;;;;;;;;;;21.32;60.36;99147.31;4426326;32;19985;-90
2022/04/06 09:57:26;;;;;;;;;;;;;;;21.62;60.37;99130.56;4426340;32;20059;-91
2022/04/06 09:59:52;;;;;;;;;;;;;;;21.71;60.38;99134.19;4426113;32;20002;-91
2022/04/06 10:02:17;;;;;;;;;;;;;;;21.92;60.38;99120.88;4439613;32;19981;-91
2022/04/06 10:04:43;;;;;;;;;;;;;;;22.09;60.39;99130.84;4426096;32;20551;-91
2022/04/06 10:07:08;;;;;;;;;;;;;;;22.15;60.39;99132.94;4426138;32;19984;-91
2022/04/06 10:09:36;;;;;;;;;;;;;;;22.16;60.41;99129.31;4426050;32;19989;-91
2022/04/06 10:12:01;;;;;;;;;;;;;;;22.22;60.41;99125.28;4425754;32;19989;-92
2022/04/06 10:14:28;;;;;;;;;;;;;;;22.32;60.40;99124.31;4426310;32;20021;-91
2022/04/06 10:16:53;;;;;;;;;;;;;;;22.42;60.42;99119.00;4439523;32;20354;-91
2022/04/06 10:19:18;;;;;;;;;;;;;;;22.50;60.42;99116.53;4426519;32;20004;-91
2022/04/06 10:21:48;;;;;;;;;;;;;;;22.43;60.41;99118.03;4439249;32;20314;-91
2022/04/06 10:24:23;;;;;;;;;;;;;;;22.48;60.42;99115.81;4440440;32;19982;-92
2022/04/06 10:26:59;;;;;;;;;;;;;;;22.46;60.41;99112.44;4439060;32;19974;-91
2022/04/06 10:29:25;;;;;;;;;;;;;;;22.44;60.41;99110.91;4438752;32;19993;-91
2022/04/06 10:31:50;;;;;;;;;;;;;;;22.37;60.41;99108.00;4425978;32;20009;-91
2022/04/06 10:34:23;;;;;;;;;;;;;;;22.26;60.41;99098.38;4438978;32;19981;-91
2022/04/06 10:37:10;;;;;;;;;;;;;;;22.35;60.41;99096.69;4438665;32;20019;-90
2022/04/06 10:39:59;;;;;;;;;;;;;;;22.19;60.40;99094.59;4440466;32;19986;-90
2022/04/06 10:42:27;;;;;;;;;;;;;;;22.28;60.41;99101.72;4438575;32;20009;-91
2022/04/06 10:44:53;;;;;;;;;;;;;;;22.29;60.41;99097.25;4439304;32;19989;-91
2022/04/06 10:47:18;;;;;;;;;;;;;;;22.45;60.42;99097.50;4438590;32;20265;-91
2022/04/06 10:49:43;;;;;;;;;;;;;;;22.47;60.41;99092.06;4451889;32;20006;-91
2022/04/06 10:52:18;;;;;;;;;;;;;;;22.41;60.42;99090.81;4451113;32;19986;-91
2022/04/06 10:54:44;;;;;;;;;;;;;;;22.08;60.39;99086.78;4438586;32;19989;-91
2022/04/06 10:57:09;;;;;;;;;;;;;;;22.09;60.41;99091.09;4451501;32;19978;-91
2022/04/06 10:59:34;;;;;;;;;;;;;;;22.10;60.40;99083.97;4451388;32;20026;-91
2022/04/06 11:02:18;;;;;;;;;;;;;;;22.23;60.40;99087.19;4438677;32;19989;-90
2022/04/06 11:04:43;;;;;;;;;;;;;;;22.25;60.41;99079.97;4439642;32;19985;-90
2022/04/06 11:07:09;;;;;;;;;;;;;;;22.39;60.41;99070.72;4438283;32;19984;-91
2022/04/06 11:12:19;;;;;;;;;;;;;;;22.75;60.43;99066.50;4449857;32;19996;-91
2022/04/06 11:14:45;;;;;;;;;;;;;;;22.90;60.44;99055.31;4451303;32;19993;-91
2022/04/06 11:17:48;;;;;;;;;;;;;;;23.03;60.45;99049.69;4438124;32;19993;-91
2022/04/06 11:20:17;;;;;;;;;;;;;;;23.14;60.45;99053.97;4451149;32;20054;-92
2022/04/06 11:22:43;;;;;;;;;;;;;;;23.37;60.47;99031.38;4438388;32;20001;-90
2022/04/06 11:25:15;;;;;;;;;;;;;;;23.45;60.47;99039.44;4451028;32;20036;-90
2022/04/06 11:27:41;;;;;;;;;;;;;;;23.38;60.47;99041.00;4451268;32;20315;-91
2022/04/06 11:30:12;;;;;;;;;;;;;;;23.48;60.47;99033.84;4451005;32;20043;-90
2022/04/06 11:32:41;;;;;;;;;;;;;;;23.34;60.47;99028.19;4451026;32;20048;-91
2022/04/06 11:35:07;;;;;;;;;;;;;;;23.09;60.45;99029.69;4437827;32;19973;-90
2022/04/06 11:37:38;;;;;;;;;;;;;;;22.85;60.44;99031.03;4438064;32;19969;-92
2022/04/06 11:40:04;;;;;;;;;;;;;;;23.00;60.44;99023.44;4450980;32;20006;-91
2022/04/06 11:42:29;;;;;;;;;;;;;;;23.02;60.44;99008.22;4438098;32;19997;-91
2022/04/06 11:44:54;;;;;;;;;;;;;;;22.98;60.45;99006.84;4438017;32;20258;-91
2022/04/06 11:47:33;;;;;;;;;;;;;;;22.93;60.44;99006.41;4450813;32;20011;-91
2022/04/06 11:49:59;;;;;;;;;;;;;;;23.03;60.44;99006.38;4437838;32;20338;-90
2022/04/06 11:52:24;;;;;;;;;;;;;;;23.21;60.46;98999.31;4450876;32;20005;-90
2022/04/06 11:54:53;;;;;;;;;;;;;;;23.48;60.47;98986.03;4451606;32;19973;-91
2022/04/06 11:57:45;;;;;;;;;;;;;;;23.54;60.47;98985.41;4440169;32;20027;-91
2022/04/06 12:00:11;;;;;;;;;;;;;;;23.61;60.48;98987.50;4453065;32;20334;-91
2022/04/06 12:02:47;;;;;;;;;;;;;;;23.68;60.48;98976.12;4440529;32;19985;-90
2022/04/06 12:05:20;;;;;;;;;;;;;;;23.62;60.48;98970.56;4453219;32;20041;-91
2022/04/06 12:07:45;;;;;;;;;;;;;;;23.56;60.48;98964.87;4439633;32;19946;-92
2022/04/06 12:10:13;;;;;;;;;;;;;;;23.62;60.48;98960.78;4440033;32;20016;-91
2022/04/06 12:12:38;;;;;;;;;;;;;;;23.58;60.48;98954.94;4440007;32;20001;-91
2022/04/06 12:15:04;;;;;;;;;;;;;;;23.65;60.49;98952.50;4452914;32;20326;-92
2022/04/06 12:17:29;;;;;;;;;;;;;;;23.83;60.50;98944.53;4452824;32;19977;-91
2022/04/06 12:19:54;;;;;;;;;;;;;;;24.03;60.50;98935.41;4440043;32;19997;-93
2022/04/06 12:22:24;;;;;;;;;;;;;;;24.09;60.50;98924.16;4440645;32;19989;-93
2022/04/06 12:24:49;;;;;;;;;;;;;;;24.04;60.51;98933.59;4440159;32;20052;-92
2022/04/06 12:27:30;;;;;;;;;;;;;;;23.91;60.50;98917.22;4453302;32;20269;-92
2022/04/06 12:30:08;;;;;;;;;;;;;;;23.87;60.49;98929.94;4439841;32;20044;-93
2022/04/06 12:32:42;;;;;;;;;;;;;;;23.77;60.49;98919.41;4439772;32;20057;-91
2022/04/06 12:35:17;;;;;;;;;;;;;;;23.69;60.49;98915.88;4441296;32;20780;-92
2022/04/06 12:37:43;;;;;;;;;;;;;;;23.79;60.48;98913.94;4427252;32;19973;-91
2022/04/06 12:40:08;;;;;;;;;;;;;;;23.63;60.48;98911.13;4427404;32;20004;-90
2022/04/06 12:42:37;;;;;;;;;;;;;;;23.54;60.48;98897.75;4440134;32;20036;-90
2022/04/06 12:45:03;;;;;;;;;;;;;;;23.54;60.48;98902.22;4426859;32;19977;-90
2022/04/06 12:47:28;;;;;;;;;;;;;;;23.60;60.49;98892.84;4426939;32;20000;-91
2022/04/06 12:50:09;;;;;;;;;;;;;;;23.62;60.48;98894.34;4426763;32;19989;-91
2022/04/06 12:52:37;;;;;;;;;;;;;;;23.68;60.49;98883.16;4441158;32;19986;-91
2022/04/06 12:55:02;;;;;;;;;;;;;;;23.77;60.49;98878.72;4426886;32;20004;-93
2022/04/06 12:57:28;;;;;;;;;;;;;;;23.72;60.48;98875.69;4441235;32;20311;-92